Terminal Aerodrome Forecast
Issued by NWS Louisville, KY

Home | Current Version | Previous Version | Text Only | Print | Product List | Glossary On
Versions: 1 2 3 4 5 6 7 8 9 10 11 12 13 14 15
000
FTUS43 KLMK 160500
TAFLEX
TAF
KLEX 160520Z 1606/1706 09008KT P6SM VCSH SCT009 BKN090
      TEMPO 1606/1610 BKN008
     FM161000 12008KT P6SM VCSH BKN015
     FM161900 17010KT 6SM -SHRA BR BKN015
     FM162200 19010KT P6SM BKN025=

USA.gov is the U.S. government's official web portal to all federal, state and local government web resources and services.